Time;durP1;ratioP1;P1;durP2;ratioP2;P2;SDS_P1;SDS_P2;PMS_P1;PMS_P2;Temp;Humidity;BMP_temperature;BMP_pressure;BME280_temperature;BME280_humidity;BME280_pressure;Samples;Min_cycle;Max_cycle;Signal;HPM_P1;HPM_P2
2021/09/22 00:00:48;;;;;;;11.38;9.75;;;;;;;13.81;55.68;95606.84;4937264;29;20042;-79
2021/09/22 00:03:13;;;;;;;15.25;10.52;;;;;;;13.79;55.90;95608.13;4935085;29;20055;-80
2021/09/22 00:05:39;;;;;;;12.35;11.13;;;;;;;13.77;56.09;95607.56;4919253;29;20539;-79
2021/09/22 00:08:14;;;;;;;13.07;11.82;;;;;;;13.77;55.75;95608.34;4922096;29;20054;-77
2021/09/22 00:10:42;;;;;;;14.43;10.55;;;;;;;13.75;56.20;95615.63;4924126;29;20114;-79
2021/09/22 00:13:07;;;;;;;12.43;11.02;;;;;;;13.76;55.99;95606.78;4936439;29;20047;-79
2021/09/22 00:15:32;;;;;;;13.93;10.93;;;;;;;13.78;56.45;95599.47;4936731;29;20043;-79
2021/09/22 00:17:58;;;;;;;13.50;10.55;;;;;;;13.72;56.10;95603.03;4936061;29;20031;-79
2021/09/22 00:20:24;;;;;;;14.40;11.70;;;;;;;13.69;56.66;95595.66;4935159;29;20495;-79
2021/09/22 00:22:51;;;;;;;14.18;11.70;;;;;;;13.76;56.24;95600.75;4934831;29;20670;-79
2021/09/22 00:25:16;;;;;;;14.27;11.38;;;;;;;13.78;55.87;95590.84;4928281;29;20059;-79
2021/09/22 00:27:42;;;;;;;11.40;10.20;;;;;;;13.74;56.36;95593.13;4937332;29;20043;-79
2021/09/22 00:30:09;;;;;;;16.08;11.55;;;;;;;13.80;56.18;95592.19;4920426;29;20070;-79
2021/09/22 00:32:34;;;;;;;13.68;11.45;;;;;;;13.79;56.09;95587.22;4935000;29;20522;-79
2021/09/22 00:35:00;;;;;;;12.15;10.90;;;;;;;13.68;56.77;95583.63;4939495;29;20660;-80
2021/09/22 00:37:26;;;;;;;16.02;11.52;;;;;;;13.69;56.87;95577.38;4936114;29;20499;-79
2021/09/22 00:39:51;;;;;;;22.13;12.43;;;;;;;13.69;56.75;95579.19;4937123;29;20055;-79
2021/09/22 00:42:17;;;;;;;13.82;11.23;;;;;;;13.73;56.22;95581.09;4937310;29;20035;-79
2021/09/22 00:44:55;;;;;;;14.20;11.80;;;;;;;13.73;56.03;95581.09;4935133;29;20040;-79
2021/09/22 00:47:21;;;;;;;17.67;12.82;;;;;;;13.71;56.76;95577.94;4935613;29;20055;-79
2021/09/22 00:49:46;;;;;;;19.00;12.07;;;;;;;13.70;56.72;95571.13;4935768;29;20464;-79
2021/09/22 00:52:13;;;;;;;19.17;12.15;;;;;;;13.69;56.93;95574.75;4919478;29;20106;-79
2021/09/22 00:54:39;;;;;;;15.95;11.25;;;;;;;13.71;56.93;95567.47;4934728;29;20063;-79
2021/09/22 00:57:05;;;;;;;16.35;12.20;;;;;;;13.72;56.98;95563.84;4932717;29;20035;-78
2021/09/22 00:59:30;;;;;;;19.33;12.00;;;;;;;13.71;56.86;95567.47;4933290;29;20039;-78
2021/09/22 01:01:59;;;;;;;13.00;11.43;;;;;;;13.64;56.77;95556.34;4933854;29;20174;-79
2021/09/22 01:04:24;;;;;;;14.15;11.45;;;;;;;13.62;56.74;95562.84;4924701;29;20106;-78
2021/09/22 01:06:50;;;;;;;14.82;11.93;;;;;;;13.57;56.96;95560.91;4954932;29;20035;-78
2021/09/22 01:09:15;;;;;;;18.92;12.43;;;;;;;13.56;56.99;95564.56;4954842;29;20036;-78
2021/09/22 01:11:41;;;;;;;17.40;12.27;;;;;;;13.56;56.98;95561.94;4946136;29;20119;-79
2021/09/22 01:14:07;;;;;;;18.80;12.88;;;;;;;13.56;56.88;95548.09;4932910;29;20123;-79
2021/09/22 01:16:40;;;;;;;14.27;12.18;;;;;;;13.51;57.11;95549.59;4933573;29;20409;-79
2021/09/22 01:19:05;;;;;;;;;;;;;;;13.46;57.35;95539.00;4933892;29;20039;-79
2021/09/22 01:21:30;;;;;;;12.68;11.38;;;;;;;13.42;57.31;95530.06;4932775;29;20017;-79
2021/09/22 01:23:56;;;;;;;18.67;12.23;;;;;;;13.45;56.71;95536.63;4949868;29;20020;-78
2021/09/22 01:26:21;;;;;;;16.00;12.68;;;;;;;13.46;56.65;95533.78;4932720;29;20051;-79
2021/09/22 01:28:47;;;;;;;14.27;11.82;;;;;;;13.50;56.58;95540.16;4934486;28;20115;-79
2021/09/22 01:31:12;;;;;;;14.45;11.75;;;;;;;13.50;56.45;95534.94;4933942;29;20031;-79
2021/09/22 01:33:38;;;;;;;13.45;11.23;;;;;;;13.54;55.88;95532.66;4917677;29;20098;-79
2021/09/22 01:36:04;;;;;;;13.45;11.88;;;;;;;13.52;56.08;95534.69;4933941;29;20039;-79
2021/09/22 01:38:29;;;;;;;17.23;12.00;;;;;;;13.52;55.99;95537.31;4917113;29;20035;-78
2021/09/22 01:40:56;;;;;;;18.10;11.65;;;;;;;13.54;55.81;95524.00;4932059;29;20428;-78
2021/09/22 01:43:21;;;;;;;14.20;11.13;;;;;;;13.54;55.45;95522.19;4931840;29;20050;-78
2021/09/22 01:45:47;;;;;;;13.68;12.25;;;;;;;13.52;55.87;95527.66;4934185;29;20043;-79
2021/09/22 01:48:13;;;;;;;14.40;12.05;;;;;;;13.55;55.53;95528.22;4919511;29;20044;-79
2021/09/22 01:50:38;;;;;;;16.65;11.13;;;;;;;13.58;55.55;95520.69;4933816;29;20040;-79
2021/09/22 01:53:03;;;;;;;18.13;12.02;;;;;;;13.61;55.30;95525.44;4934573;29;20028;-78
2021/09/22 01:55:29;;;;;;;19.80;12.63;;;;;;;13.63;55.26;95518.16;4933558;29;20044;-79
2021/09/22 01:57:54;;;;;;;17.80;11.35;;;;;;;13.61;54.71;95524.66;4917085;29;20047;-79
2021/09/22 02:00:20;;;;;;;14.93;11.18;;;;;;;13.56;54.86;95517.53;4918141;29;20055;-79
2021/09/22 02:02:45;;;;;;;15.95;11.85;;;;;;;13.56;54.63;95517.53;4950988;29;20036;-78
2021/09/22 02:05:11;;;;;;;14.88;10.15;;;;;;;13.49;54.61;95522.06;4934113;29;20032;-78
2021/09/22 02:07:36;;;;;;;16.48;11.48;;;;;;;13.40;54.90;95526.09;4933082;29;20032;-78
2021/09/22 02:10:05;;;;;;;11.98;10.13;;;;;;;13.31;54.82;95524.84;4932148;29;20083;-78
2021/09/22 02:12:31;;;;;;;13.05;10.98;;;;;;;13.29;54.52;95517.25;4916927;29;20031;-78
2021/09/22 02:14:56;;;;;;;14.52;11.18;;;;;;;13.23;54.94;95512.16;4934269;29;20050;-78
2021/09/22 02:17:22;;;;;;;13.25;9.13;;;;;;;13.15;54.14;95508.84;4935097;29;20130;-78
2021/09/22 02:19:48;;;;;;;16.58;9.20;;;;;;;13.14;53.79;95515.09;4934255;29;20048;-79
2021/09/22 02:22:13;;;;;;;11.52;9.38;;;;;;;13.14;53.81;95515.09;4932255;29;20047;-78
2021/09/22 02:24:42;;;;;;;10.50;9.40;;;;;;;13.19;53.33;95522.28;4913207;29;20039;-77
2021/09/22 02:27:11;;;;;;;15.45;8.98;;;;;;;13.19;53.46;95517.06;4930443;29;20047;-77
2021/09/22 02:29:37;;;;;;;12.82;9.82;;;;;;;13.20;53.23;95521.28;4913524;29;20044;-77
2021/09/22 02:32:03;;;;;;;10.60;9.50;;;;;;;13.20;53.31;95524.66;4928720;29;20041;-77
2021/09/22 02:34:29;;;;;;;13.32;9.82;;;;;;;13.23;53.25;95522.63;4931057;29;20050;-78
2021/09/22 02:36:54;;;;;;;11.93;9.18;;;;;;;13.20;52.92;95531.72;4933408;29;20031;-78
2021/09/22 02:39:20;;;;;;;15.80;10.00;;;;;;;13.12;52.41;95534.63;4932621;29;20186;-78
2021/09/22 02:41:45;;;;;;;13.65;9.45;;;;;;;13.10;52.80;95529.63;4933070;29;20039;-78
2021/09/22 02:44:11;;;;;;;11.88;9.15;;;;;;;13.08;52.86;95534.31;4933501;29;20048;-77
2021/09/22 02:46:36;;;;;;;11.15;9.43;;;;;;;13.04;52.01;95527.97;4932443;29;20102;-77
2021/09/22 02:49:02;;;;;;;10.88;8.90;;;;;;;13.01;53.02;95531.00;4901125;29;20028;-77
2021/09/22 02:51:27;;;;;;;9.80;8.45;;;;;;;13.01;52.15;95523.16;4932425;29;20035;-77
2021/09/22 02:53:53;;;;;;;16.98;8.63;;;;;;;13.01;51.95;95525.78;4933443;29;20032;-78
2021/09/22 02:56:18;;;;;;;12.50;8.68;;;;;;;13.04;52.14;95514.13;4935327;29;20411;-78
2021/09/22 02:58:44;;;;;;;9.38;8.48;;;;;;;13.09;51.92;95522.84;4917215;29;20035;-78
2021/09/22 03:01:09;;;;;;;10.75;9.63;;;;;;;13.08;51.71;95516.03;4934016;29;20043;-78
2021/09/22 03:03:35;;;;;;;9.57;8.65;;;;;;;13.14;51.30;95519.53;4933149;29;20040;-78
2021/09/22 03:06:00;;;;;;;9.43;7.88;;;;;;;13.10;51.43;95513.97;4933194;29;20040;-78
2021/09/22 03:08:25;;;;;;;12.40;8.75;;;;;;;13.08;51.14;95510.00;4934773;29;20031;-78
2021/09/22 03:10:51;;;;;;;11.43;8.15;;;;;;;13.12;50.91;95514.53;4933439;29;20499;-78
2021/09/22 03:13:16;;;;;;;19.38;8.07;;;;;;;13.15;51.09;95511.47;4934584;29;20471;-78
2021/09/22 03:15:42;;;;;;;10.68;8.50;;;;;;;13.18;50.70;95503.22;4919494;29;20036;-78
2021/09/22 03:18:08;;;;;;;16.65;8.68;;;;;;;13.20;50.05;95509.00;4937515;29;20473;-78
2021/09/22 03:20:33;;;;;;;9.98;8.40;;;;;;;13.15;50.11;95503.63;4918554;29;20076;-78
2021/09/22 03:22:59;;;;;;;9.30;8.38;;;;;;;13.15;50.64;95501.00;4934119;29;20130;-78
2021/09/22 03:25:24;;;;;;;10.43;8.52;;;;;;;13.19;50.38;95509.22;4918181;29;20423;-78
2021/09/22 03:27:55;;;;;;;12.82;9.75;;;;;;;13.17;50.62;95514.63;4934011;29;20044;-79
2021/09/22 03:30:23;;;;;;;14.38;8.70;;;;;;;13.21;50.41;95515.81;4918557;29;20095;-78
2021/09/22 03:32:49;;;;;;;11.48;8.95;;;;;;;13.25;50.27;95510.91;4933186;29;20040;-78
2021/09/22 03:35:14;;;;;;;16.48;9.40;;;;;;;13.27;50.57;95508.06;4933193;29;20353;-77
2021/09/22 03:37:58;;;;;;;16.90;9.57;;;;;;;13.29;49.97;95511.25;4933476;29;20047;-78
2021/09/22 03:40:26;;;;;;;9.95;8.45;;;;;;;13.29;50.10;95506.00;4916942;29;20074;-78
2021/09/22 03:42:51;;;;;;;11.20;10.10;;;;;;;13.33;49.73;95507.91;4934662;29;20043;-78
2021/09/22 03:45:17;;;;;;;11.13;7.68;;;;;;;13.35;50.16;95497.28;4934576;29;20059;-78
2021/09/22 03:47:42;;;;;;;11.40;8.60;;;;;;;13.31;50.25;95494.31;4933855;29;20139;-78
2021/09/22 03:50:08;;;;;;;11.55;9.45;;;;;;;13.31;50.52;95501.34;4935090;29;20048;-78
2021/09/22 03:52:34;;;;;;;9.68;7.97;;;;;;;13.36;50.10;95501.47;4933749;29;20039;-78
2021/09/22 03:55:12;;;;;;;14.48;8.82;;;;;;;13.36;49.99;95498.84;4934479;29;20067;-78
2021/09/22 03:57:40;;;;;;;13.00;7.82;;;;;;;13.37;50.31;95498.63;4936642;29;20046;-78
2021/09/22 04:00:06;;;;;;;9.75;8.75;;;;;;;13.43;50.09;95496.88;4935330;29;20040;-78
2021/09/22 04:02:32;;;;;;;11.20;7.55;;;;;;;13.43;49.57;95478.59;4932890;29;20039;-78
2021/09/22 04:04:58;;;;;;;7.82;7.05;;;;;;;13.44;49.51;95482.81;4932620;29;20047;-78
2021/09/22 04:07:23;;;;;;;9.48;8.20;;;;;;;13.47;49.75;95483.13;4932737;29;20035;-78
2021/09/22 04:09:49;;;;;;;12.82;8.43;;;;;;;13.50;49.59;95487.91;4948740;29;20035;-78
2021/09/22 04:12:14;;;;;;;10.85;7.90;;;;;;;13.48;49.58;95489.13;4932769;29;20118;-78
2021/09/22 04:14:40;;;;;;;11.52;7.85;;;;;;;13.46;50.11;95491.19;4934313;29;20518;-77
2021/09/22 04:17:05;;;;;;;11.45;8.20;;;;;;;13.36;50.18;95489.19;4917254;29;20050;-78
2021/09/22 04:19:33;;;;;;;8.55;7.60;;;;;;;13.30;49.82;95487.50;4932889;29;20028;-78
2021/09/22 04:21:59;;;;;;;12.40;8.10;;;;;;;13.30;50.25;95487.50;4932515;29;20459;-77
2021/09/22 04:24:24;;;;;;;15.13;7.75;;;;;;;13.34;49.73;95477.38;4932136;29;20078;-78
2021/09/22 04:26:49;;;;;;;10.45;8.13;;;;;;;13.32;49.60;95479.44;4932703;29;20028;-78
2021/09/22 04:29:15;;;;;;;8.15;7.13;;;;;;;13.35;49.69;95477.16;4916030;29;20035;-77
2021/09/22 04:31:42;;;;;;;8.63;7.68;;;;;;;13.36;49.72;95459.69;4931608;29;20099;-77
2021/09/22 04:34:08;;;;;;;15.30;8.15;;;;;;;13.37;49.57;95466.47;4932342;29;20046;-78
2021/09/22 04:36:33;;;;;;;10.77;8.30;;;;;;;13.40;49.75;95455.56;4933480;29;20023;-78
2021/09/22 04:38:58;;;;;;;7.55;6.95;;;;;;;13.41;49.43;95454.53;4917556;29;20114;-79
2021/09/22 04:41:24;;;;;;;7.95;7.15;;;;;;;13.42;49.52;95448.28;4938006;29;20447;-79
2021/09/22 04:43:49;;;;;;;13.30;7.53;;;;;;;13.40;49.36;95439.88;4937231;29;20598;-79
2021/09/22 04:46:15;;;;;;;15.15;8.23;;;;;;;13.44;49.65;95443.63;4935743;29;20047;-79
2021/09/22 04:48:41;;;;;;;11.85;8.25;;;;;;;13.50;49.21;95437.44;4934623;29;20063;-79
2021/09/22 04:51:07;;;;;;;19.95;7.70;;;;;;;13.55;49.09;95440.16;4934516;29;20035;-79
2021/09/22 04:53:32;;;;;;;19.65;8.40;;;;;;;13.58;49.32;95441.50;4933043;29;20042;-79
2021/09/22 04:55:59;;;;;;;12.70;7.60;;;;;;;13.57;49.57;95440.72;4935260;29;20047;-79
2021/09/22 04:58:24;;;;;;;14.98;8.38;;;;;;;13.54;49.52;95454.25;4918671;29;20032;-80
2021/09/22 05:00:53;;;;;;;9.52;7.32;;;;;;;13.55;49.41;95450.63;4937020;29;20143;-79
2021/09/22 05:03:31;;;;;;;7.80;7.10;;;;;;;13.58;49.58;95452.75;4933759;29;20054;-79
2021/09/22 05:05:57;;;;;;;10.00;7.53;;;;;;;13.53;49.78;95450.06;4935780;29;20031;-79
2021/09/22 05:08:23;;;;;;;8.82;7.20;;;;;;;13.53;49.43;95444.84;4935690;29;20121;-80
2021/09/22 05:10:48;;;;;;;9.18;7.95;;;;;;;13.56;49.31;95444.38;4935979;29;20039;-79
2021/09/22 05:13:13;;;;;;;7.20;6.55;;;;;;;13.55;48.97;95448.00;4936946;29;20036;-79
2021/09/22 05:15:39;;;;;;;7.35;6.47;;;;;;;13.56;48.41;95444.38;4936675;29;20427;-79
2021/09/22 05:18:04;;;;;;;14.25;7.28;;;;;;;13.59;48.52;95451.72;4935472;29;20512;-78
2021/09/22 05:20:30;;;;;;;15.95;8.18;;;;;;;13.59;48.63;95441.28;4918584;29;20119;-79
2021/09/22 05:22:55;;;;;;;13.40;8.65;;;;;;;13.61;48.74;95446.25;4941949;29;20032;-79
2021/09/22 05:25:21;;;;;;;24.10;8.27;;;;;;;13.67;48.25;95438.28;4955058;29;20377;-78
2021/09/22 05:27:47;;;;;;;9.88;8.88;;;;;;;13.70;47.46;95432.59;4956929;29;20036;-79
2021/09/22 05:30:12;;;;;;;16.30;8.73;;;;;;;13.74;47.26;95441.53;4948379;29;20105;-79
2021/09/22 05:32:38;;;;;;;8.80;7.07;;;;;;;13.67;47.16;95440.91;4920997;29;20055;-79
2021/09/22 05:35:08;;;;;;;9.68;7.40;;;;;;;13.67;47.00;95446.13;4918807;29;20504;-79
2021/09/22 05:37:37;;;;;;;11.98;7.38;;;;;;;13.60;46.38;95440.25;4933802;29;20059;-79
2021/09/22 05:40:07;;;;;;;8.95;7.82;;;;;;;13.60;46.58;95442.84;4933572;29;20035;-79
2021/09/22 05:42:32;;;;;;;11.85;8.95;;;;;;;13.53;46.50;95447.44;4935731;29;20083;-79
2021/09/22 05:44:58;;;;;;;13.45;8.70;;;;;;;13.49;46.75;95443.69;4934645;29;20043;-79
2021/09/22 05:47:23;;;;;;;18.55;7.13;;;;;;;13.43;46.82;95444.63;4919060;29;20587;-79
2021/09/22 05:49:49;;;;;;;8.38;7.47;;;;;;;13.48;46.44;95442.09;4934914;29;20031;-79
2021/09/22 05:52:15;;;;;;;12.27;7.53;;;;;;;13.40;46.50;95434.66;4936975;29;20062;-79
2021/09/22 05:54:41;;;;;;;10.13;8.38;;;;;;;13.41;46.81;95436.25;4949289;29;20503;-78
2021/09/22 05:57:06;;;;;;;14.25;7.15;;;;;;;13.51;46.38;95432.00;4935510;29;20039;-78
2021/09/22 05:59:32;;;;;;;11.68;8.52;;;;;;;13.63;46.33;95439.78;4937128;29;20490;-79
2021/09/22 06:02:00;;;;;;;28.92;6.75;;;;;;;13.69;45.66;95440.66;4937419;28;20094;-78
2021/09/22 06:04:26;;;;;;;10.15;6.82;;;;;;;13.71;46.19;95447.25;4935338;29;20040;-78
2021/09/22 06:06:52;;;;;;;10.93;6.93;;;;;;;13.74;45.90;95446.75;4922058;29;20071;-79
2021/09/22 06:09:17;;;;;;;13.05;7.55;;;;;;;13.78;45.94;95445.25;4935268;29;20047;-78
2021/09/22 06:11:43;;;;;;;15.25;7.72;;;;;;;13.89;45.85;95432.38;4928391;29;20046;-78
2021/09/22 06:14:08;;;;;;;8.70;7.20;;;;;;;14.00;45.53;95434.13;4928397;29;20043;-78
2021/09/22 06:16:34;;;;;;;8.55;7.22;;;;;;;14.04;45.39;95435.22;4928095;29;20035;-78
2021/09/22 06:19:01;;;;;;;18.48;8.52;;;;;;;14.07;45.46;95430.31;4913778;29;20046;-79
2021/09/22 06:21:27;;;;;;;14.30;9.23;;;;;;;14.06;45.69;95433.16;4933507;29;20036;-76
2021/09/22 06:26:25;;;;;;;17.08;7.70;;;;;;;14.09;45.07;95419.59;4987493;23;20078;-79
2021/09/22 06:28:50;;;;;;;14.85;9.60;;;;;;;14.11;44.91;95422.78;4937231;29;20039;-77
2021/09/22 06:33:52;;;;;;;13.45;10.75;;;;;;;14.04;45.03;95425.56;4955957;23;20134;-78
2021/09/22 06:36:18;;;;;;;10.57;8.93;;;;;;;14.05;45.30;95424.53;4930143;29;20035;-80
2021/09/22 06:38:43;;;;;;;11.60;8.20;;;;;;;13.97;44.90;95422.28;4930000;29;20036;-80
2021/09/22 06:41:08;;;;;;;12.60;8.73;;;;;;;13.93;45.42;95438.69;4927833;29;20559;-80
2021/09/22 06:43:34;;;;;;;10.75;7.95;;;;;;;13.88;45.88;95438.63;4928166;29;20048;-80
2021/09/22 06:46:00;;;;;;;10.82;8.40;;;;;;;13.91;46.03;95438.16;4911550;29;20040;-79
2021/09/22 06:48:25;;;;;;;17.58;9.88;;;;;;;13.91;45.54;95436.31;4925324;29;20629;-80
2021/09/22 06:50:51;;;;;;;13.07;9.75;;;;;;;13.92;45.69;95426.66;4925473;29;20048;-80
2021/09/22 06:53:16;;;;;;;19.52;10.88;;;;;;;13.88;45.62;95438.63;4929463;29;20043;-80
2021/09/22 06:58:41;;;;;;;17.35;11.02;;;;;;;14.01;45.36;95431.28;4931743;29;20040;-80
2021/09/22 07:01:09;;;;;;;16.20;8.02;;;;;;;14.08;45.20;95441.56;4925587;29;20031;-78
2021/09/22 07:03:35;;;;;;;8.45;7.55;;;;;;;14.12;44.95;95442.66;4924660;29;20702;-78
2021/09/22 07:06:00;;;;;;;12.35;7.97;;;;;;;14.12;44.78;95437.44;4926887;29;20133;-79
2021/09/22 07:08:25;;;;;;;14.90;8.55;;;;;;;14.09;44.07;95443.16;4925677;29;20043;-79
2021/09/22 07:10:51;;;;;;;16.98;9.13;;;;;;;13.97;44.85;95450.25;4908077;29;20522;-77
2021/09/22 07:13:17;;;;;;;15.50;8.90;;;;;;;13.93;44.69;95454.38;4926249;29;20488;-79
2021/09/22 07:15:42;;;;;;;16.00;9.18;;;;;;;13.82;44.38;95454.22;4925087;29;20103;-78
2021/09/22 07:18:09;;;;;;;18.67;10.23;;;;;;;13.75;44.22;95443.13;4928218;29;20047;-79
2021/09/22 07:20:35;;;;;;;19.92;9.55;;;;;;;13.69;44.22;95449.31;4926550;29;20040;-77
2021/09/22 07:23:10;;;;;;;16.45;10.25;;;;;;;13.63;44.34;95439.78;4910319;29;20044;-79
2021/09/22 07:25:36;;;;;;;16.08;10.27;;;;;;;13.65;44.55;95437.72;4932996;29;20040;-79
2021/09/22 07:28:02;;;;;;;15.32;9.90;;;;;;;13.70;44.83;95445.66;4926187;29;20497;-79
2021/09/22 07:30:27;;;;;;;12.57;8.85;;;;;;;13.82;44.71;95448.97;4928113;29;20141;-80
2021/09/22 07:32:54;;;;;;;12.38;7.50;;;;;;;13.80;43.84;95435.34;4927206;29;20044;-82
2021/09/22 07:35:19;;;;;;;12.30;7.90;;;;;;;13.97;44.94;95447.66;4928650;29;20043;-79
2021/09/22 07:37:45;;;;;;;10.27;8.35;;;;;;;14.05;44.17;95442.03;4930202;29;20194;-80
2021/09/22 07:40:11;;;;;;;12.40;8.00;;;;;;;14.06;43.64;95439.19;4925302;29;20092;-79
2021/09/22 07:42:37;;;;;;;20.92;9.30;;;;;;;14.13;43.63;95439.00;4925127;29;20579;-79
2021/09/22 07:47:28;;;;;;;15.10;8.80;;;;;;;14.17;43.15;95434.13;5016506;23;20047;-80
2021/09/22 07:49:53;;;;;;;17.15;9.95;;;;;;;14.11;43.28;95436.63;4936707;29;20039;-79
2021/09/22 07:52:19;;;;;;;16.20;8.25;;;;;;;13.98;42.96;95444.00;4938559;29;20046;-82
2021/09/22 07:54:44;;;;;;;14.25;7.82;;;;;;;13.91;43.58;95440.75;4940345;29;20031;-82
2021/09/22 07:57:10;;;;;;;11.35;8.82;;;;;;;13.92;44.00;95437.13;4937953;29;20032;-81
2021/09/22 07:59:47;;;;;;;11.68;9.40;;;;;;;13.88;42.85;95438.63;4939265;29;20052;-82
2021/09/22 08:02:13;;;;;;;19.10;10.45;;;;;;;13.93;43.66;95443.94;5014037;23;20055;-80
2021/09/22 08:04:38;;;;;;;25.73;14.07;;;;;;;13.96;43.30;95438.22;4938121;29;20031;-80
2021/09/22 08:07:04;;;;;;;26.75;15.95;;;;;;;13.94;44.01;95433.22;4937010;29;20067;-79
2021/09/22 08:09:29;;;;;;;27.90;11.50;;;;;;;14.05;44.09;95439.44;4920204;29;20031;-81
2021/09/22 08:11:55;;;;;;;11.18;8.57;;;;;;;14.16;43.35;95425.50;4937596;29;20042;-81
2021/09/22 08:14:20;;;;;;;13.60;8.20;;;;;;;14.27;43.03;95423.78;4936522;29;20058;-81
2021/09/22 08:16:46;;;;;;;19.85;7.85;;;;;;;14.42;43.31;95422.19;4920472;29;20036;-81
2021/09/22 08:19:12;;;;;;;26.27;10.18;;;;;;;14.55;43.08;95420.31;4920110;29;20043;-81
2021/09/22 08:21:37;;;;;;;9.50;8.23;;;;;;;14.70;42.08;95425.75;4920063;29;20050;-81
2021/09/22 08:24:03;;;;;;;14.95;9.40;;;;;;;14.82;42.27;95413.34;4936607;29;20032;-81
2021/09/22 08:26:29;;;;;;;11.60;7.82;;;;;;;14.87;41.89;95408.16;4920190;29;20047;-81
2021/09/22 08:28:55;;;;;;;11.48;8.35;;;;;;;14.97;41.73;95408.28;4937264;29;20044;-81
2021/09/22 08:31:20;;;;;;;10.02;7.93;;;;;;;14.99;40.52;95413.28;4936083;29;20204;-81
2021/09/22 08:33:46;;;;;;;11.88;7.78;;;;;;;15.08;40.85;95414.41;4935207;29;20078;-81
2021/09/22 08:36:12;;;;;;;17.02;10.02;;;;;;;15.04;41.13;95413.31;4934780;29;20044;-81
2021/09/22 08:38:37;;;;;;;18.38;10.90;;;;;;;15.08;40.82;95405.78;4936896;29;20118;-81
2021/09/22 08:41:04;;;;;;;17.25;9.65;;;;;;;15.10;40.87;95411.56;4936255;29;20044;-81
2021/09/22 08:43:29;;;;;;;16.60;8.60;;;;;;;15.21;40.67;95408.81;4935374;29;20495;-81
2021/09/22 08:45:55;;;;;;;13.57;9.52;;;;;;;15.27;40.03;95402.56;4935268;29;20042;-81
2021/09/22 08:48:24;;;;;;;8.48;7.68;;;;;;;15.27;40.12;95392.09;4936134;29;20114;-80
2021/09/22 08:50:49;;;;;;;12.70;7.30;;;;;;;15.26;39.96;95395.75;4934803;29;20048;-80
2021/09/22 08:53:20;;;;;;;10.27;8.07;;;;;;;15.08;40.25;95403.16;4934778;29;20023;-80
2021/09/22 08:55:45;;;;;;;8.65;7.03;;;;;;;15.12;40.56;95399.00;4936873;29;20471;-81
2021/09/22 08:58:11;;;;;;;9.57;7.95;;;;;;;15.23;40.26;95390.22;4936571;29;20094;-81
2021/09/22 09:00:37;;;;;;;15.00;7.97;;;;;;;15.28;40.53;95396.28;4919435;29;20039;-80
2021/09/22 09:03:02;;;;;;;10.75;7.10;;;;;;;15.42;40.29;95396.69;4934812;29;20023;-81
2021/09/22 09:05:47;;;;;;;8.60;7.28;;;;;;;15.52;39.82;95385.53;4936536;29;20040;-81
2021/09/22 09:08:14;;;;;;;12.02;6.72;;;;;;;15.58;39.87;95376.66;4925201;29;20427;-80
2021/09/22 09:10:40;;;;;;;7.38;6.15;;;;;;;15.50;39.60;95387.63;4935434;29;20035;-81
2021/09/22 09:13:09;;;;;;;8.27;5.97;;;;;;;15.52;39.72;95383.69;4935914;29;20036;-80
2021/09/22 09:15:37;;;;;;;9.65;6.90;;;;;;;15.39;40.39;95394.56;4934970;29;20032;-81
2021/09/22 09:18:12;;;;;;;11.95;7.28;;;;;;;15.35;40.52;95380.38;4935572;29;20166;-80
2021/09/22 09:20:38;;;;;;;7.05;6.30;;;;;;;15.30;40.71;95375.91;4934860;29;20036;-81
2021/09/22 09:23:16;;;;;;;21.85;12.20;;;;;;;15.23;41.15;95377.13;4935766;29;20087;-81
2021/09/22 09:25:45;;;;;;;26.75;18.30;;;;;;;15.31;40.88;95371.44;4936058;29;20038;-81
2021/09/22 09:28:19;;;;;;;9.85;8.85;;;;;;;15.39;40.75;95364.97;4934425;29;20504;-81
2021/09/22 09:30:47;;;;;;;11.95;7.97;;;;;;;15.35;40.99;95362.03;4951794;29;20051;-85
2021/09/22 09:33:40;;;;;;;12.43;8.07;;;;;;;15.35;40.75;95372.53;4917758;29;20039;-81
2021/09/22 09:36:23;;;;;;;9.40;8.13;;;;;;;15.25;41.28;95372.41;4930654;29;20527;-81
2021/09/22 09:39:23;;;;;;;19.10;10.20;;;;;;;15.30;41.63;95377.72;4917880;29;20043;-79
2021/09/22 09:41:51;;;;;;;17.77;9.52;;;;;;;15.34;41.28;95367.53;4937766;29;20423;-86
2021/09/22 09:44:21;;;;;;;21.52;11.73;;;;;;;15.45;41.76;95367.38;4923773;29;20419;-84
2021/09/22 09:46:47;;;;;;;12.82;8.55;;;;;;;15.60;40.63;95364.91;4938310;29;20090;-85
2021/09/22 09:49:15;;;;;;;11.35;8.10;;;;;;;15.71;40.90;95352.69;4939063;29;20113;-84
2021/09/22 09:51:46;;;;;;;28.30;8.85;;;;;;;15.79;40.83;95352.25;4923186;29;20036;-85
2021/09/22 09:54:24;;;;;;;9.25;7.50;;;;;;;15.72;39.93;95356.88;4923025;29;20035;-85
2021/09/22 09:56:52;;;;;;;27.05;9.02;;;;;;;15.63;40.91;95360.25;4942060;29;20038;-84
2021/09/22 09:59:19;;;;;;;17.08;9.20;;;;;;;15.67;40.64;95356.84;4925260;29;20032;-85
2021/09/22 10:01:48;;;;;;;9.07;6.95;;;;;;;15.49;39.64;95344.88;4941967;29;20192;-85
2021/09/22 10:04:16;;;;;;;17.60;6.93;;;;;;;15.33;40.35;95348.41;4941048;29;20031;-85
2021/09/22 10:06:43;;;;;;;8.90;7.30;;;;;;;15.22;40.43;95342.28;4940549;29;20036;-85
2021/09/22 10:09:08;;;;;;;9.88;7.72;;;;;;;15.03;40.36;95361.97;4940462;29;20322;-85
2021/09/22 10:11:35;;;;;;;13.05;8.05;;;;;;;14.98;40.91;95347.03;4926992;29;20051;-86
2021/09/22 10:14:01;;;;;;;13.48;6.70;;;;;;;14.96;41.20;95361.38;4941596;29;20035;-86
2021/09/22 10:16:28;;;;;;;8.63;7.38;;;;;;;14.96;41.57;95354.31;4941844;29;20095;-85
2021/09/22 10:18:55;;;;;;;12.00;8.55;;;;;;;15.02;42.13;95358.56;4925133;29;20028;-86
2021/09/22 10:21:23;;;;;;;8.85;7.93;;;;;;;15.17;42.39;95359.78;4945170;29;20036;-86
2021/09/22 10:23:50;;;;;;;14.20;8.65;;;;;;;15.21;42.47;95360.84;4931812;29;20099;-86
2021/09/22 10:26:16;;;;;;;12.13;7.25;;;;;;;15.21;42.02;95353.00;4982200;23;20609;-85
2021/09/22 10:28:42;;;;;;;13.07;8.60;;;;;;;15.26;42.44;95353.03;4959251;28;20072;-85
2021/09/22 10:31:37;;;;;;;8.80;7.13;;;;;;;15.28;41.65;95345.72;4935009;29;20075;-84
2021/09/22 10:34:28;;;;;;;10.05;5.85;;;;;;;15.22;41.83;95341.47;4937360;29;20044;-85
2021/09/22 10:36:53;;;;;;;6.43;5.93;;;;;;;15.22;41.07;95342.28;4940677;29;20032;-86
2021/09/22 10:39:45;;;;;;;9.55;6.63;;;;;;;15.23;40.65;95351.72;4923505;29;20072;-85
2021/09/22 10:42:30;;;;;;;11.18;7.55;;;;;;;15.16;41.00;95339.84;4923861;29;20072;-86
2021/09/22 10:45:19;;;;;;;13.82;10.02;;;;;;;15.27;41.33;95328.41;4938999;29;20024;-86
2021/09/22 10:47:45;;;;;;;11.25;7.05;;;;;;;15.25;41.29;95320.00;4923140;29;20040;-86
2021/09/22 10:50:14;;;;;;;8.07;7.22;;;;;;;15.09;41.53;95310.44;4923176;29;20043;-85
2021/09/22 10:52:42;;;;;;;18.77;10.05;;;;;;;15.20;42.08;95327.84;4923361;29;20047;-85
2021/09/22 10:55:17;;;;;;;19.55;8.52;;;;;;;15.34;41.84;95318.53;4924593;29;20032;-86
2021/09/22 10:57:44;;;;;;;16.92;11.95;;;;;;;15.54;41.55;95312.69;4924375;29;20028;-86
2021/09/22 11:00:15;;;;;;;17.70;11.23;;;;;;;15.77;41.02;95311.56;4923615;29;20028;-86
2021/09/22 11:02:44;;;;;;;13.27;8.55;;;;;;;15.85;40.36;95308.47;4923823;29;20043;-85
2021/09/22 11:05:14;;;;;;;9.57;6.80;;;;;;;15.96;40.16;95315.38;4938640;29;20410;-86
2021/09/22 11:08:03;;;;;;;8.57;7.07;;;;;;;15.93;40.14;95321.09;4937386;29;20436;-86
2021/09/22 11:10:42;;;;;;;8.52;7.05;;;;;;;16.03;40.00;95326.44;4925072;29;20062;-87
2021/09/22 11:13:23;;;;;;;16.55;6.80;;;;;;;16.02;39.91;95324.84;4940157;29;20040;-83
2021/09/22 11:15:49;;;;;;;10.23;5.60;;;;;;;16.02;40.33;95322.22;4925098;29;20520;-86
2021/09/22 11:18:15;;;;;;;14.30;7.45;;;;;;;16.14;40.48;95327.28;4939680;29;20036;-86
2021/09/22 11:20:54;;;;;;;9.38;7.40;;;;;;;16.11;39.98;95317.31;4925118;29;20036;-86
2021/09/22 11:26:05;;;;;;;14.13;9.57;;;;;;;16.14;40.58;95322.03;5427559;23;20064;-86
2021/09/22 11:28:59;;;;;;;15.45;8.52;;;;;;;16.11;40.35;95309.44;4923155;29;20050;-87
2021/09/22 11:32:01;;;;;;;22.20;10.63;;;;;;;16.07;40.49;95301.25;4919020;29;20036;-86
2021/09/22 11:34:27;;;;;;;10.65;7.28;;;;;;;16.09;39.91;95322.00;4923743;29;20047;-86
2021/09/22 11:37:10;;;;;;;14.18;6.93;;;;;;;16.02;40.24;95319.59;4925288;29;20036;-86
2021/09/22 11:39:40;;;;;;;;;;;;;;;15.93;39.91;95307.19;4906659;29;20035;-84